sensor_id;sensor_type;location;lat;lon;timestamp;P1;durP1;ratioP1;P2;durP2;ratioP2
18776;SDS011;9517;51.174;4.160;2023-07-31T00:00:25;24.63;;;7.20;;
18776;SDS011;9517;51.174;4.160;2023-07-31T00:02:52;25.73;;;6.77;;
18776;SDS011;9517;51.174;4.160;2023-07-31T00:05:22;23.47;;;6.10;;
18776;SDS011;9517;51.174;4.160;2023-07-31T00:07:49;24.90;;;6.40;;
18776;SDS011;9517;51.174;4.160;2023-07-31T00:10:16;24.10;;;7.27;;
18776;SDS011;9517;51.174;4.160;2023-07-31T00:12:45;23.23;;;6.37;;
18776;SDS011;9517;51.174;4.160;2023-07-31T00:15:12;22.60;;;6.70;;
18776;SDS011;9517;51.174;4.160;2023-07-31T00:17:40;21.67;;;6.23;;
18776;SDS011;9517;51.174;4.160;2023-07-31T00:20:08;26.60;;;7.07;;
18776;SDS011;9517;51.174;4.160;2023-07-31T00:22:36;17.83;;;5.70;;
18776;SDS011;9517;51.174;4.160;2023-07-31T00:25:03;25.00;;;6.67;;
18776;SDS011;9517;51.174;4.160;2023-07-31T00:27:31;24.87;;;6.93;;
18776;SDS011;9517;51.174;4.160;2023-07-31T00:30:00;22.80;;;6.70;;
18776;SDS011;9517;51.174;4.160;2023-07-31T00:32:27;24.93;;;7.23;;
18776;SDS011;9517;51.174;4.160;2023-07-31T00:34:54;27.87;;;7.37;;
18776;SDS011;9517;51.174;4.160;2023-07-31T00:37:21;26.33;;;6.63;;
18776;SDS011;9517;51.174;4.160;2023-07-31T00:39:48;28.73;;;7.37;;
18776;SDS011;9517;51.174;4.160;2023-07-31T00:42:15;30.23;;;7.57;;
18776;SDS011;9517;51.174;4.160;2023-07-31T00:44:42;24.77;;;7.27;;
18776;SDS011;9517;51.174;4.160;2023-07-31T00:47:10;23.77;;;7.53;;
18776;SDS011;9517;51.174;4.160;2023-07-31T00:49:37;26.23;;;7.03;;
18776;SDS011;9517;51.174;4.160;2023-07-31T00:52:05;26.00;;;7.53;;
18776;SDS011;9517;51.174;4.160;2023-07-31T00:54:33;24.57;;;7.17;;
18776;SDS011;9517;51.174;4.160;2023-07-31T00:57:00;29.10;;;7.50;;
18776;SDS011;9517;51.174;4.160;2023-07-31T00:59:27;26.27;;;8.07;;
18776;SDS011;9517;51.174;4.160;2023-07-31T01:01:54;23.77;;;7.23;;
18776;SDS011;9517;51.174;4.160;2023-07-31T01:04:23;29.87;;;8.47;;
18776;SDS011;9517;51.174;4.160;2023-07-31T01:06:52;22.60;;;6.50;;
18776;SDS011;9517;51.174;4.160;2023-07-31T01:09:28;20.97;;;6.93;;
18776;SDS011;9517;51.174;4.160;2023-07-31T01:12:01;20.50;;;6.17;;
18776;SDS011;9517;51.174;4.160;2023-07-31T01:14:30;23.17;;;7.37;;
18776;SDS011;9517;51.174;4.160;2023-07-31T01:16:57;24.00;;;6.97;;
18776;SDS011;9517;51.174;4.160;2023-07-31T01:19:26;23.23;;;6.43;;
18776;SDS011;9517;51.174;4.160;2023-07-31T01:22:05;21.33;;;6.40;;
18776;SDS011;9517;51.174;4.160;2023-07-31T01:24:52;24.73;;;6.83;;
18776;SDS011;9517;51.174;4.160;2023-07-31T01:27:28;26.07;;;7.03;;
18776;SDS011;9517;51.174;4.160;2023-07-31T01:30:03;24.40;;;6.57;;
18776;SDS011;9517;51.174;4.160;2023-07-31T01:32:39;26.73;;;6.93;;
18776;SDS011;9517;51.174;4.160;2023-07-31T01:35:08;22.73;;;6.00;;
18776;SDS011;9517;51.174;4.160;2023-07-31T01:37:35;26.87;;;6.80;;
18776;SDS011;9517;51.174;4.160;2023-07-31T01:40:03;24.10;;;6.07;;
18776;SDS011;9517;51.174;4.160;2023-07-31T01:42:33;22.87;;;6.13;;
18776;SDS011;9517;51.174;4.160;2023-07-31T01:45:00;24.53;;;7.57;;
18776;SDS011;9517;51.174;4.160;2023-07-31T01:47:27;22.63;;;5.77;;
18776;SDS011;9517;51.174;4.160;2023-07-31T01:49:54;26.37;;;6.37;;
18776;SDS011;9517;51.174;4.160;2023-07-31T01:52:21;26.27;;;6.73;;
18776;SDS011;9517;51.174;4.160;2023-07-31T01:54:48;23.17;;;6.63;;
18776;SDS011;9517;51.174;4.160;2023-07-31T01:57:15;26.53;;;6.93;;
18776;SDS011;9517;51.174;4.160;2023-07-31T01:59:43;26.93;;;6.37;;
18776;SDS011;9517;51.174;4.160;2023-07-31T02:02:11;19.90;;;5.97;;
18776;SDS011;9517;51.174;4.160;2023-07-31T02:04:38;30.57;;;6.87;;
18776;SDS011;9517;51.174;4.160;2023-07-31T02:07:06;19.60;;;6.43;;
18776;SDS011;9517;51.174;4.160;2023-07-31T02:09:33;23.13;;;6.10;;
18776;SDS011;9517;51.174;4.160;2023-07-31T02:12:00;23.90;;;5.83;;
18776;SDS011;9517;51.174;4.160;2023-07-31T02:14:27;23.47;;;6.00;;
18776;SDS011;9517;51.174;4.160;2023-07-31T02:16:55;21.90;;;5.70;;
18776;SDS011;9517;51.174;4.160;2023-07-31T02:19:22;23.00;;;6.53;;
18776;SDS011;9517;51.174;4.160;2023-07-31T02:21:49;26.23;;;6.70;;
18776;SDS011;9517;51.174;4.160;2023-07-31T02:24:16;22.60;;;6.40;;
18776;SDS011;9517;51.174;4.160;2023-07-31T02:26:43;23.53;;;6.17;;
18776;SDS011;9517;51.174;4.160;2023-07-31T02:29:10;25.33;;;6.50;;
18776;SDS011;9517;51.174;4.160;2023-07-31T02:31:40;21.43;;;6.83;;
18776;SDS011;9517;51.174;4.160;2023-07-31T02:34:09;19.07;;;5.50;;
18776;SDS011;9517;51.174;4.160;2023-07-31T02:36:36;23.83;;;5.90;;
18776;SDS011;9517;51.174;4.160;2023-07-31T02:39:03;22.80;;;6.47;;
18776;SDS011;9517;51.174;4.160;2023-07-31T02:41:30;21.03;;;6.27;;
18776;SDS011;9517;51.174;4.160;2023-07-31T02:43:57;24.57;;;6.83;;
18776;SDS011;9517;51.174;4.160;2023-07-31T02:46:24;25.57;;;6.63;;
18776;SDS011;9517;51.174;4.160;2023-07-31T02:48:51;20.83;;;6.07;;
18776;SDS011;9517;51.174;4.160;2023-07-31T02:51:21;21.57;;;6.13;;
18776;SDS011;9517;51.174;4.160;2023-07-31T02:53:48;20.83;;;6.00;;
18776;SDS011;9517;51.174;4.160;2023-07-31T02:56:15;19.90;;;5.87;;
18776;SDS011;9517;51.174;4.160;2023-07-31T02:58:42;17.67;;;5.70;;
18776;SDS011;9517;51.174;4.160;2023-07-31T03:01:09;25.43;;;6.77;;
18776;SDS011;9517;51.174;4.160;2023-07-31T03:03:36;22.97;;;5.43;;
18776;SDS011;9517;51.174;4.160;2023-07-31T03:06:04;21.23;;;5.70;;
18776;SDS011;9517;51.174;4.160;2023-07-31T03:08:32;21.77;;;5.00;;
18776;SDS011;9517;51.174;4.160;2023-07-31T03:10:59;16.77;;;5.10;;
18776;SDS011;9517;51.174;4.160;2023-07-31T03:13:26;20.27;;;5.17;;
18776;SDS011;9517;51.174;4.160;2023-07-31T03:15:53;23.87;;;5.60;;
18776;SDS011;9517;51.174;4.160;2023-07-31T03:18:20;22.47;;;6.40;;
18776;SDS011;9517;51.174;4.160;2023-07-31T03:20:47;21.47;;;5.93;;
18776;SDS011;9517;51.174;4.160;2023-07-31T03:23:14;23.80;;;6.13;;
18776;SDS011;9517;51.174;4.160;2023-07-31T03:25:52;25.17;;;6.00;;
18776;SDS011;9517;51.174;4.160;2023-07-31T03:28:22;23.97;;;6.40;;
18776;SDS011;9517;51.174;4.160;2023-07-31T03:30:49;18.40;;;5.57;;
18776;SDS011;9517;51.174;4.160;2023-07-31T03:33:17;23.93;;;5.90;;
18776;SDS011;9517;51.174;4.160;2023-07-31T03:35:45;20.63;;;6.13;;
18776;SDS011;9517;51.174;4.160;2023-07-31T03:38:12;19.87;;;5.87;;
18776;SDS011;9517;51.174;4.160;2023-07-31T03:40:39;17.23;;;5.70;;
18776;SDS011;9517;51.174;4.160;2023-07-31T03:43:08;24.63;;;6.67;;
18776;SDS011;9517;51.174;4.160;2023-07-31T03:45:35;16.67;;;5.60;;
18776;SDS011;9517;51.174;4.160;2023-07-31T03:48:03;19.97;;;5.87;;
18776;SDS011;9517;51.174;4.160;2023-07-31T03:50:30;21.77;;;6.77;;
18776;SDS011;9517;51.174;4.160;2023-07-31T03:52:57;21.83;;;5.67;;
18776;SDS011;9517;51.174;4.160;2023-07-31T03:55:24;21.93;;;6.33;;
18776;SDS011;9517;51.174;4.160;2023-07-31T03:57:51;28.07;;;6.80;;
18776;SDS011;9517;51.174;4.160;2023-07-31T04:00:20;20.77;;;6.63;;
18776;SDS011;9517;51.174;4.160;2023-07-31T04:02:47;20.50;;;6.43;;
18776;SDS011;9517;51.174;4.160;2023-07-31T04:05:14;21.57;;;7.00;;
18776;SDS011;9517;51.174;4.160;2023-07-31T04:07:41;22.37;;;7.60;;
18776;SDS011;9517;51.174;4.160;2023-07-31T04:10:09;22.87;;;7.57;;
18776;SDS011;9517;51.174;4.160;2023-07-31T04:12:36;16.87;;;6.07;;
18776;SDS011;9517;51.174;4.160;2023-07-31T04:15:03;22.17;;;7.83;;
18776;SDS011;9517;51.174;4.160;2023-07-31T04:17:32;21.90;;;5.70;;
18776;SDS011;9517;51.174;4.160;2023-07-31T04:19:59;22.13;;;7.10;;
18776;SDS011;9517;51.174;4.160;2023-07-31T04:22:27;21.20;;;7.40;;
18776;SDS011;9517;51.174;4.160;2023-07-31T04:24:54;25.77;;;8.23;;
18776;SDS011;9517;51.174;4.160;2023-07-31T04:27:21;26.47;;;8.53;;
18776;SDS011;9517;51.174;4.160;2023-07-31T04:29:48;23.73;;;8.00;;
18776;SDS011;9517;51.174;4.160;2023-07-31T04:32:16;28.80;;;8.67;;
18776;SDS011;9517;51.174;4.160;2023-07-31T04:34:45;25.17;;;8.27;;
18776;SDS011;9517;51.174;4.160;2023-07-31T04:37:12;23.13;;;7.80;;
18776;SDS011;9517;51.174;4.160;2023-07-31T04:39:39;21.00;;;6.87;;
18776;SDS011;9517;51.174;4.160;2023-07-31T04:42:06;21.80;;;8.17;;
18776;SDS011;9517;51.174;4.160;2023-07-31T04:44:34;22.70;;;7.43;;
18776;SDS011;9517;51.174;4.160;2023-07-31T04:47:01;24.07;;;7.80;;
18776;SDS011;9517;51.174;4.160;2023-07-31T04:49:28;22.37;;;7.00;;
18776;SDS011;9517;51.174;4.160;2023-07-31T04:51:56;19.37;;;7.37;;
18776;SDS011;9517;51.174;4.160;2023-07-31T04:54:23;19.20;;;6.50;;
18776;SDS011;9517;51.174;4.160;2023-07-31T04:56:51;18.00;;;6.87;;
18776;SDS011;9517;51.174;4.160;2023-07-31T04:59:18;18.87;;;6.83;;
18776;SDS011;9517;51.174;4.160;2023-07-31T05:01:45;22.07;;;7.03;;
18776;SDS011;9517;51.174;4.160;2023-07-31T05:04:12;18.53;;;6.80;;
18776;SDS011;9517;51.174;4.160;2023-07-31T05:06:40;17.47;;;7.07;;
18776;SDS011;9517;51.174;4.160;2023-07-31T05:09:08;14.67;;;6.10;;
18776;SDS011;9517;51.174;4.160;2023-07-31T05:11:37;23.13;;;7.47;;
18776;SDS011;9517;51.174;4.160;2023-07-31T05:14:05;18.50;;;6.77;;
18776;SDS011;9517;51.174;4.160;2023-07-31T05:16:32;19.93;;;6.93;;
18776;SDS011;9517;51.174;4.160;2023-07-31T05:18:59;13.37;;;6.10;;
18776;SDS011;9517;51.174;4.160;2023-07-31T05:21:26;21.00;;;6.50;;
18776;SDS011;9517;51.174;4.160;2023-07-31T05:23:53;18.77;;;7.13;;
18776;SDS011;9517;51.174;4.160;2023-07-31T05:26:22;14.77;;;6.83;;
18776;SDS011;9517;51.174;4.160;2023-07-31T05:28:49;18.67;;;6.87;;
18776;SDS011;9517;51.174;4.160;2023-07-31T05:31:16;16.60;;;6.80;;
18776;SDS011;9517;51.174;4.160;2023-07-31T05:33:43;15.13;;;6.53;;
18776;SDS011;9517;51.174;4.160;2023-07-31T05:36:10;14.17;;;6.43;;
18776;SDS011;9517;51.174;4.160;2023-07-31T05:38:37;17.07;;;6.17;;
18776;SDS011;9517;51.174;4.160;2023-07-31T05:41:04;16.93;;;6.70;;
18776;SDS011;9517;51.174;4.160;2023-07-31T05:43:33;13.87;;;5.37;;
18776;SDS011;9517;51.174;4.160;2023-07-31T05:46:00;16.23;;;6.73;;
18776;SDS011;9517;51.174;4.160;2023-07-31T05:48:27;24.00;;;6.93;;
18776;SDS011;9517;51.174;4.160;2023-07-31T05:50:54;14.43;;;6.53;;
18776;SDS011;9517;51.174;4.160;2023-07-31T05:53:21;16.27;;;7.10;;
18776;SDS011;9517;51.174;4.160;2023-07-31T05:55:49;16.67;;;7.00;;
18776;SDS011;9517;51.174;4.160;2023-07-31T05:58:16;21.73;;;7.87;;
18776;SDS011;9517;51.174;4.160;2023-07-31T06:00:44;18.83;;;7.23;;
18776;SDS011;9517;51.174;4.160;2023-07-31T06:03:11;18.17;;;7.07;;
18776;SDS011;9517;51.174;4.160;2023-07-31T06:05:39;20.67;;;7.20;;
18776;SDS011;9517;51.174;4.160;2023-07-31T06:08:06;16.63;;;7.43;;
18776;SDS011;9517;51.174;4.160;2023-07-31T06:10:33;21.73;;;8.03;;
18776;SDS011;9517;51.174;4.160;2023-07-31T06:13:00;20.43;;;7.90;;
18776;SDS011;9517;51.174;4.160;2023-07-31T06:15:27;22.13;;;7.80;;
18776;SDS011;9517;51.174;4.160;2023-07-31T06:17:55;19.73;;;7.67;;
18776;SDS011;9517;51.174;4.160;2023-07-31T06:20:22;16.37;;;7.93;;
18776;SDS011;9517;51.174;4.160;2023-07-31T06:22:49;17.70;;;7.33;;
18776;SDS011;9517;51.174;4.160;2023-07-31T06:25:17;22.20;;;8.17;;
18776;SDS011;9517;51.174;4.160;2023-07-31T06:27:44;24.27;;;8.53;;
18776;SDS011;9517;51.174;4.160;2023-07-31T06:30:11;20.90;;;8.40;;
18776;SDS011;9517;51.174;4.160;2023-07-31T06:32:38;18.67;;;7.83;;
18776;SDS011;9517;51.174;4.160;2023-07-31T06:35:08;20.57;;;8.80;;
18776;SDS011;9517;51.174;4.160;2023-07-31T06:37:35;16.60;;;7.77;;
18776;SDS011;9517;51.174;4.160;2023-07-31T06:40:02;22.13;;;7.87;;
18776;SDS011;9517;51.174;4.160;2023-07-31T06:42:32;20.90;;;8.73;;
18776;SDS011;9517;51.174;4.160;2023-07-31T06:45:00;19.67;;;7.17;;
18776;SDS011;9517;51.174;4.160;2023-07-31T06:47:27;19.83;;;7.83;;
18776;SDS011;9517;51.174;4.160;2023-07-31T06:49:54;22.73;;;8.20;;
18776;SDS011;9517;51.174;4.160;2023-07-31T06:52:23;22.77;;;8.73;;
18776;SDS011;9517;51.174;4.160;2023-07-31T06:55:00;19.20;;;7.07;;
18776;SDS011;9517;51.174;4.160;2023-07-31T06:57:28;16.47;;;6.97;;
18776;SDS011;9517;51.174;4.160;2023-07-31T06:59:56;18.83;;;7.80;;
18776;SDS011;9517;51.174;4.160;2023-07-31T07:02:23;18.27;;;7.03;;
18776;SDS011;9517;51.174;4.160;2023-07-31T07:04:50;19.30;;;7.30;;
18776;SDS011;9517;51.174;4.160;2023-07-31T07:07:17;13.30;;;6.40;;
18776;SDS011;9517;51.174;4.160;2023-07-31T07:09:46;16.03;;;6.40;;
18776;SDS011;9517;51.174;4.160;2023-07-31T07:12:13;20.63;;;7.90;;
18776;SDS011;9517;51.174;4.160;2023-07-31T07:14:40;20.13;;;6.77;;
18776;SDS011;9517;51.174;4.160;2023-07-31T07:17:07;17.87;;;6.73;;
18776;SDS011;9517;51.174;4.160;2023-07-31T07:19:34;23.33;;;8.00;;
18776;SDS011;9517;51.174;4.160;2023-07-31T07:22:01;21.20;;;6.67;;
18776;SDS011;9517;51.174;4.160;2023-07-31T07:24:28;16.47;;;5.90;;
18776;SDS011;9517;51.174;4.160;2023-07-31T07:26:57;15.70;;;6.00;;
18776;SDS011;9517;51.174;4.160;2023-07-31T07:29:24;18.40;;;6.00;;
18776;SDS011;9517;51.174;4.160;2023-07-31T07:31:51;19.43;;;6.27;;
18776;SDS011;9517;51.174;4.160;2023-07-31T07:34:18;14.80;;;5.50;;
18776;SDS011;9517;51.174;4.160;2023-07-31T07:36:45;15.77;;;5.60;;
18776;SDS011;9517;51.174;4.160;2023-07-31T07:39:12;18.17;;;5.07;;
18776;SDS011;9517;51.174;4.160;2023-07-31T07:41:39;14.70;;;5.20;;
18776;SDS011;9517;51.174;4.160;2023-07-31T07:44:08;15.53;;;4.70;;
18776;SDS011;9517;51.174;4.160;2023-07-31T07:46:35;13.67;;;5.20;;
18776;SDS011;9517;51.174;4.160;2023-07-31T07:49:02;18.00;;;5.13;;
18776;SDS011;9517;51.174;4.160;2023-07-31T07:51:29;13.03;;;4.60;;
18776;SDS011;9517;51.174;4.160;2023-07-31T07:53:57;11.63;;;4.40;;
18776;SDS011;9517;51.174;4.160;2023-07-31T07:56:24;11.60;;;4.03;;
18776;SDS011;9517;51.174;4.160;2023-07-31T07:58:52;14.67;;;4.63;;
18776;SDS011;9517;51.174;4.160;2023-07-31T08:01:21;9.30;;;3.57;;
18776;SDS011;9517;51.174;4.160;2023-07-31T08:03:48;12.87;;;4.20;;
18776;SDS011;9517;51.174;4.160;2023-07-31T08:06:16;14.33;;;3.93;;
18776;SDS011;9517;51.174;4.160;2023-07-31T08:08:43;12.87;;;4.20;;
18776;SDS011;9517;51.174;4.160;2023-07-31T08:11:10;11.70;;;3.80;;
18776;SDS011;9517;51.174;4.160;2023-07-31T08:13:37;14.50;;;4.47;;
18776;SDS011;9517;51.174;4.160;2023-07-31T08:16:04;12.37;;;4.43;;
18776;SDS011;9517;51.174;4.160;2023-07-31T08:18:33;14.17;;;4.77;;
18776;SDS011;9517;51.174;4.160;2023-07-31T08:21:01;13.13;;;4.13;;
18776;SDS011;9517;51.174;4.160;2023-07-31T08:23:28;13.57;;;4.87;;
18776;SDS011;9517;51.174;4.160;2023-07-31T08:25:56;10.10;;;3.67;;
18776;SDS011;9517;51.174;4.160;2023-07-31T08:28:23;13.33;;;3.57;;
18776;SDS011;9517;51.174;4.160;2023-07-31T08:30:50;12.70;;;3.90;;
18776;SDS011;9517;51.174;4.160;2023-07-31T08:33:17;13.33;;;3.83;;
18776;SDS011;9517;51.174;4.160;2023-07-31T08:35:48;14.03;;;3.90;;
18776;SDS011;9517;51.174;4.160;2023-07-31T08:38:17;14.23;;;3.83;;
18776;SDS011;9517;51.174;4.160;2023-07-31T08:40:44;11.87;;;3.80;;
18776;SDS011;9517;51.174;4.160;2023-07-31T08:43:11;12.10;;;3.83;;
18776;SDS011;9517;51.174;4.160;2023-07-31T08:45:39;11.10;;;3.17;;
18776;SDS011;9517;51.174;4.160;2023-07-31T08:48:08;14.80;;;3.80;;
18776;SDS011;9517;51.174;4.160;2023-07-31T08:50:37;11.87;;;3.80;;
18776;SDS011;9517;51.174;4.160;2023-07-31T08:53:10;12.43;;;3.40;;
18776;SDS011;9517;51.174;4.160;2023-07-31T08:55:37;12.00;;;3.20;;
18776;SDS011;9517;51.174;4.160;2023-07-31T08:58:05;11.27;;;3.07;;
18776;SDS011;9517;51.174;4.160;2023-07-31T09:00:32;11.13;;;3.47;;
18776;SDS011;9517;51.174;4.160;2023-07-31T09:03:00;11.43;;;3.20;;
18776;SDS011;9517;51.174;4.160;2023-07-31T09:05:36;9.30;;;2.83;;
18776;SDS011;9517;51.174;4.160;2023-07-31T09:08:05;11.37;;;3.07;;
18776;SDS011;9517;51.174;4.160;2023-07-31T09:10:37;9.30;;;2.70;;
18776;SDS011;9517;51.174;4.160;2023-07-31T09:13:07;9.40;;;3.33;;
18776;SDS011;9517;51.174;4.160;2023-07-31T09:15:36;8.17;;;2.50;;
18776;SDS011;9517;51.174;4.160;2023-07-31T09:18:04;9.07;;;3.03;;
18776;SDS011;9517;51.174;4.160;2023-07-31T09:20:32;11.53;;;3.20;;
18776;SDS011;9517;51.174;4.160;2023-07-31T09:23:05;7.70;;;2.70;;
18776;SDS011;9517;51.174;4.160;2023-07-31T09:25:34;9.47;;;3.03;;
18776;SDS011;9517;51.174;4.160;2023-07-31T09:28:03;9.70;;;2.73;;
18776;SDS011;9517;51.174;4.160;2023-07-31T09:30:32;7.03;;;2.67;;
18776;SDS011;9517;51.174;4.160;2023-07-31T09:33:12;8.57;;;2.60;;
18776;SDS011;9517;51.174;4.160;2023-07-31T09:35:39;7.83;;;2.53;;
18776;SDS011;9517;51.174;4.160;2023-07-31T09:38:07;8.73;;;2.33;;
18776;SDS011;9517;51.174;4.160;2023-07-31T09:40:36;9.03;;;2.43;;
18776;SDS011;9517;51.174;4.160;2023-07-31T09:43:06;8.77;;;3.00;;
18776;SDS011;9517;51.174;4.160;2023-07-31T09:45:35;12.23;;;3.03;;
18776;SDS011;9517;51.174;4.160;2023-07-31T09:48:06;8.33;;;3.27;;
18776;SDS011;9517;51.174;4.160;2023-07-31T09:50:36;8.27;;;2.90;;
18776;SDS011;9517;51.174;4.160;2023-07-31T09:53:04;9.73;;;3.30;;
18776;SDS011;9517;51.174;4.160;2023-07-31T09:55:31;10.50;;;3.13;;
18776;SDS011;9517;51.174;4.160;2023-07-31T09:57:59;10.33;;;3.50;;
18776;SDS011;9517;51.174;4.160;2023-07-31T10:00:31;8.93;;;3.07;;
18776;SDS011;9517;51.174;4.160;2023-07-31T10:02:59;11.13;;;3.97;;
18776;SDS011;9517;51.174;4.160;2023-07-31T10:05:30;12.23;;;4.10;;
18776;SDS011;9517;51.174;4.160;2023-07-31T10:08:00;10.27;;;3.80;;
18776;SDS011;9517;51.174;4.160;2023-07-31T10:10:27;16.00;;;4.10;;
18776;SDS011;9517;51.174;4.160;2023-07-31T10:12:55;10.17;;;3.70;;
18776;SDS011;9517;51.174;4.160;2023-07-31T10:15:23;10.50;;;3.67;;
18776;SDS011;9517;51.174;4.160;2023-07-31T10:17:52;15.10;;;4.00;;
18776;SDS011;9517;51.174;4.160;2023-07-31T10:20:20;10.63;;;4.07;;
18776;SDS011;9517;51.174;4.160;2023-07-31T10:22:48;12.70;;;4.67;;
18776;SDS011;9517;51.174;4.160;2023-07-31T10:25:16;11.23;;;4.20;;
18776;SDS011;9517;51.174;4.160;2023-07-31T10:27:46;11.50;;;4.20;;
18776;SDS011;9517;51.174;4.160;2023-07-31T10:30:15;12.93;;;4.00;;
18776;SDS011;9517;51.174;4.160;2023-07-31T10:32:44;11.30;;;4.07;;
18776;SDS011;9517;51.174;4.160;2023-07-31T10:35:12;11.87;;;4.23;;
18776;SDS011;9517;51.174;4.160;2023-07-31T10:37:42;14.70;;;4.63;;
18776;SDS011;9517;51.174;4.160;2023-07-31T10:40:10;11.60;;;4.20;;
18776;SDS011;9517;51.174;4.160;2023-07-31T10:42:44;13.40;;;4.60;;
18776;SDS011;9517;51.174;4.160;2023-07-31T10:45:13;12.03;;;3.93;;
18776;SDS011;9517;51.174;4.160;2023-07-31T10:47:49;12.50;;;4.63;;
18776;SDS011;9517;51.174;4.160;2023-07-31T10:50:27;12.53;;;4.90;;
18776;SDS011;9517;51.174;4.160;2023-07-31T10:52:55;14.57;;;5.47;;
18776;SDS011;9517;51.174;4.160;2023-07-31T10:55:27;15.90;;;5.93;;
18776;SDS011;9517;51.174;4.160;2023-07-31T10:57:55;13.80;;;4.97;;
18776;SDS011;9517;51.174;4.160;2023-07-31T11:00:25;12.10;;;5.43;;
18776;SDS011;9517;51.174;4.160;2023-07-31T11:02:57;12.10;;;5.20;;
18776;SDS011;9517;51.174;4.160;2023-07-31T11:05:41;14.43;;;6.03;;
18776;SDS011;9517;51.174;4.160;2023-07-31T11:08:13;16.00;;;6.50;;
18776;SDS011;9517;51.174;4.160;2023-07-31T11:10:42;15.13;;;6.60;;
18776;SDS011;9517;51.174;4.160;2023-07-31T11:13:10;15.97;;;6.93;;
18776;SDS011;9517;51.174;4.160;2023-07-31T11:15:37;14.77;;;6.63;;
18776;SDS011;9517;51.174;4.160;2023-07-31T11:18:04;16.07;;;7.47;;
18776;SDS011;9517;51.174;4.160;2023-07-31T11:20:33;16.20;;;7.33;;
18776;SDS011;9517;51.174;4.160;2023-07-31T11:23:03;17.93;;;7.10;;
18776;SDS011;9517;51.174;4.160;2023-07-31T11:25:32;21.50;;;7.70;;
18776;SDS011;9517;51.174;4.160;2023-07-31T11:28:02;18.40;;;7.77;;
18776;SDS011;9517;51.174;4.160;2023-07-31T11:30:30;15.57;;;7.90;;
18776;SDS011;9517;51.174;4.160;2023-07-31T11:32:58;19.90;;;6.87;;
18776;SDS011;9517;51.174;4.160;2023-07-31T11:35:25;17.83;;;7.13;;
18776;SDS011;9517;51.174;4.160;2023-07-31T11:37:53;16.50;;;7.47;;
18776;SDS011;9517;51.174;4.160;2023-07-31T11:40:21;15.50;;;7.03;;
18776;SDS011;9517;51.174;4.160;2023-07-31T11:42:53;15.67;;;7.20;;
18776;SDS011;9517;51.174;4.160;2023-07-31T11:45:21;18.80;;;7.33;;
18776;SDS011;9517;51.174;4.160;2023-07-31T11:47:51;16.13;;;6.63;;
18776;SDS011;9517;51.174;4.160;2023-07-31T11:50:20;17.47;;;6.57;;
18776;SDS011;9517;51.174;4.160;2023-07-31T11:52:47;15.10;;;6.30;;
18776;SDS011;9517;51.174;4.160;2023-07-31T11:55:18;15.97;;;6.70;;
18776;SDS011;9517;51.174;4.160;2023-07-31T11:57:47;19.63;;;6.90;;
18776;SDS011;9517;51.174;4.160;2023-07-31T12:00:15;17.40;;;6.80;;
18776;SDS011;9517;51.174;4.160;2023-07-31T12:02:43;15.67;;;6.67;;
18776;SDS011;9517;51.174;4.160;2023-07-31T12:05:11;16.60;;;6.67;;
18776;SDS011;9517;51.174;4.160;2023-07-31T12:07:48;15.17;;;6.87;;
18776;SDS011;9517;51.174;4.160;2023-07-31T12:10:25;20.57;;;7.93;;
18776;SDS011;9517;51.174;4.160;2023-07-31T12:12:59;17.57;;;7.70;;
18776;SDS011;9517;51.174;4.160;2023-07-31T12:18:13;19.63;;;8.07;;
18776;SDS011;9517;51.174;4.160;2023-07-31T12:20:41;17.37;;;7.00;;
18776;SDS011;9517;51.174;4.160;2023-07-31T12:23:13;18.73;;;7.20;;
18776;SDS011;9517;51.174;4.160;2023-07-31T12:25:41;22.20;;;7.00;;
18776;SDS011;9517;51.174;4.160;2023-07-31T12:28:10;14.63;;;5.97;;
18776;SDS011;9517;51.174;4.160;2023-07-31T12:30:40;16.63;;;6.57;;
18776;SDS011;9517;51.174;4.160;2023-07-31T12:33:12;16.43;;;6.80;;
18776;SDS011;9517;51.174;4.160;2023-07-31T12:35:41;17.00;;;6.87;;
18776;SDS011;9517;51.174;4.160;2023-07-31T12:38:10;17.00;;;6.47;;
18776;SDS011;9517;51.174;4.160;2023-07-31T12:40:38;18.43;;;6.40;;
18776;SDS011;9517;51.174;4.160;2023-07-31T12:43:06;16.97;;;7.00;;
18776;SDS011;9517;51.174;4.160;2023-07-31T12:45:35;17.60;;;7.30;;
18776;SDS011;9517;51.174;4.160;2023-07-31T12:48:02;18.60;;;7.07;;
18776;SDS011;9517;51.174;4.160;2023-07-31T12:50:30;17.57;;;6.43;;
18776;SDS011;9517;51.174;4.160;2023-07-31T12:52:57;16.50;;;7.20;;
18776;SDS011;9517;51.174;4.160;2023-07-31T12:55:24;18.47;;;7.97;;
18776;SDS011;9517;51.174;4.160;2023-07-31T12:57:51;17.60;;;8.13;;
18776;SDS011;9517;51.174;4.160;2023-07-31T13:00:18;21.20;;;8.07;;
18776;SDS011;9517;51.174;4.160;2023-07-31T13:02:47;18.90;;;7.83;;
18776;SDS011;9517;51.174;4.160;2023-07-31T13:05:14;21.60;;;9.00;;
18776;SDS011;9517;51.174;4.160;2023-07-31T13:07:41;19.83;;;9.40;;
18776;SDS011;9517;51.174;4.160;2023-07-31T13:10:09;19.20;;;8.80;;
18776;SDS011;9517;51.174;4.160;2023-07-31T13:12:36;22.27;;;9.57;;
18776;SDS011;9517;51.174;4.160;2023-07-31T13:15:03;20.10;;;9.40;;
18776;SDS011;9517;51.174;4.160;2023-07-31T13:17:31;19.27;;;9.60;;
18776;SDS011;9517;51.174;4.160;2023-07-31T13:20:00;19.63;;;9.20;;
18776;SDS011;9517;51.174;4.160;2023-07-31T13:22:28;18.10;;;9.33;;
18776;SDS011;9517;51.174;4.160;2023-07-31T13:24:55;16.63;;;6.27;;
18776;SDS011;9517;51.174;4.160;2023-07-31T13:27:23;16.43;;;6.70;;
18776;SDS011;9517;51.174;4.160;2023-07-31T13:29:50;14.57;;;7.03;;
18776;SDS011;9517;51.174;4.160;2023-07-31T13:32:18;15.87;;;7.53;;
18776;SDS011;9517;51.174;4.160;2023-07-31T13:34:46;12.87;;;5.47;;
18776;SDS011;9517;51.174;4.160;2023-07-31T13:37:15;14.47;;;5.80;;
18776;SDS011;9517;51.174;4.160;2023-07-31T13:39:42;17.10;;;5.97;;
18776;SDS011;9517;51.174;4.160;2023-07-31T13:42:10;13.80;;;6.50;;
18776;SDS011;9517;51.174;4.160;2023-07-31T13:44:37;18.70;;;7.63;;
18776;SDS011;9517;51.174;4.160;2023-07-31T13:47:05;17.83;;;6.83;;
18776;SDS011;9517;51.174;4.160;2023-07-31T13:49:32;15.47;;;6.10;;
18776;SDS011;9517;51.174;4.160;2023-07-31T13:52:00;15.03;;;5.20;;
18776;SDS011;9517;51.174;4.160;2023-07-31T13:54:29;16.67;;;5.80;;
18776;SDS011;9517;51.174;4.160;2023-07-31T13:56:57;12.23;;;4.80;;
18776;SDS011;9517;51.174;4.160;2023-07-31T13:59:24;9.83;;;3.60;;
18776;SDS011;9517;51.174;4.160;2023-07-31T14:01:51;10.23;;;4.40;;
18776;SDS011;9517;51.174;4.160;2023-07-31T14:04:19;7.63;;;2.93;;
18776;SDS011;9517;51.174;4.160;2023-07-31T14:06:46;10.67;;;3.70;;
18776;SDS011;9517;51.174;4.160;2023-07-31T14:09:15;10.13;;;3.10;;
18776;SDS011;9517;51.174;4.160;2023-07-31T14:11:45;6.67;;;3.00;;
18776;SDS011;9517;51.174;4.160;2023-07-31T14:14:12;6.97;;;2.47;;
18776;SDS011;9517;51.174;4.160;2023-07-31T14:16:39;8.77;;;2.70;;
18776;SDS011;9517;51.174;4.160;2023-07-31T14:19:06;9.77;;;2.90;;
18776;SDS011;9517;51.174;4.160;2023-07-31T14:21:33;7.73;;;3.00;;
18776;SDS011;9517;51.174;4.160;2023-07-31T14:24:01;10.43;;;3.60;;
18776;SDS011;9517;51.174;4.160;2023-07-31T14:26:28;8.37;;;3.17;;
18776;SDS011;9517;51.174;4.160;2023-07-31T14:28:56;9.20;;;3.20;;
18776;SDS011;9517;51.174;4.160;2023-07-31T14:31:23;7.83;;;2.93;;
18776;SDS011;9517;51.174;4.160;2023-07-31T14:33:50;8.27;;;2.90;;
18776;SDS011;9517;51.174;4.160;2023-07-31T14:36:17;10.07;;;3.60;;
18776;SDS011;9517;51.174;4.160;2023-07-31T14:38:45;10.77;;;4.20;;
18776;SDS011;9517;51.174;4.160;2023-07-31T14:41:12;11.03;;;3.83;;
18776;SDS011;9517;51.174;4.160;2023-07-31T14:43:39;12.67;;;5.40;;
18776;SDS011;9517;51.174;4.160;2023-07-31T14:46:07;11.03;;;4.13;;
18776;SDS011;9517;51.174;4.160;2023-07-31T14:48:34;14.93;;;4.80;;
18776;SDS011;9517;51.174;4.160;2023-07-31T14:51:01;11.90;;;4.93;;
18776;SDS011;9517;51.174;4.160;2023-07-31T14:53:29;12.90;;;4.37;;
18776;SDS011;9517;51.174;4.160;2023-07-31T14:55:56;12.33;;;4.43;;